Language selection

Features

My Weather Profile Weather Topics  | 

Pacific - North Coast: Past 24 Hour Conditions

 

West Moresby - 46208

08:00 AM PST 05 March 2021Buoy position: 52.52N 132.68W
Disclaimer

This table is a summary of hourly weather conditions for the past 24 hours.
Please note that these observations might not always be representative of weather conditions over their associated marine area.

Date / Time
(PST)
Wind(knots) Wave height(m) Wave period(s) Pressure(kPa) Air tempC) Water tempC)
05 March 2021
8:00 N 8 gust 12 4.7 10.0 100.1 6 N/A
7:00 NNW 6 gust 10 5.0 10.0 100.2 6 N/A
6:00 NW 2 gust 6 4.9 11.0 100.3 6 N/A
5:00 S 6 gust 10 5.0 10.0 100.3 7 N/A
4:00 S 10 gust 13 5.3 11.0 100.4 7 N/A
3:00 S 16 gust 19 5.3 11.0 100.5 7 N/A
2:00 S 16 gust 22 5.9 10.0 100.6 7 N/A
1:00 S 22 gust 27 6.2 12.0 100.5 7 N/A
0:00 S 19 gust 25 6.8 12.0 100.5 7 N/A
04 March 2021
23:00 SSW 25 gust 31 7.2 12.0 100.4 7 N/A
22:00 SSW 27 gust 35 7.7 14.0 100.3 6 N/A
21:00 SSW 31 gust 41 9.0 13.0 100.0 7 N/A
20:00 SSW 39 gust 46 8.9 14.0 99.6 6 N/A
19:00 SSW 41 gust 55 8.9 13.0 99.1 5 N/A
18:00 SSW 33 gust 49 8.4 12.0 98.4 6 N/A
17:00 SE 19 gust 27 7.7 12.0 98.0 7 N/A
16:00 E 33 gust 41 6.9 12.0 98.2 6 N/A
15:00 E 27 gust 37 7.3 12.0 98.5 7 N/A
14:00 E 25 gust 31 6.8 12.0 98.8 7 N/A
13:00 E 27 gust 35 6.2 10.0 99.0 7 N/A
12:00 ESE 31 gust 41 6.1 11.0 99.2 7 N/A
11:00 ESE 33 gust 43 4.8 17.0 99.2 8 N/A
10:00 ESE 27 gust 37 3.8 17.0 99.4 7 N/A
9:00 SE 25 gust 35 3.7 17.0 99.5 7 N/A
8:00 NNE 22 gust 25 4.0 13.0 99.6 4 N/A

Zoom-in to make a selection

Map of Pacific - North Coast marine weather areas Middle Nomad - 46004 South Nomad - 46036 Dixon Entrance Central - 46145 South Moresby - 46147 Nanakwa Shoal - 46181 North Hecate Strait - 46183 North Nomad - 46184 South Hecate Strait - 46185 West Sea Otter - 46204 West Dixon Entrance - 46205 East Dellwood - 46207 West Moresby - 46208 Sartine Island Cape St.James Kindakun Rocks Langara Island Masset Municipal Airport Rose Spit Sandspit Airport Bella Bella Airport Bella Coola Airport Bonilla Island Cathedral Point Cumshewa Island Grey Islet Holland Rock Lucy Islands Lightstation Prince Rupert Airport
Legend:
buoy Buoy
land station Land Station

Pacific - North Coast Area

Another Region

What we are doing

Features

Need to travel Alberta Highway 93?

Go prepared with Highway 93 forecasts. Highway regions are available in the Alberta text forecast bulletin between Lake Louise and Jasper. (Photo by: Natalie Anderson)

Date modified: